Terminal Aerodrome Forecast
Issued by NWS Tuscon, AZ

Home | Current Version | Previous Version | Text Only | Print | Product List | Glossary On
Versions: 1 2 3 4 5 6 7 8 9 10 11 12 13 14
766
FTUS45 KTWC 250520
TAFTUS
TAF
KTUS 250520Z 2506/2606 26009KT P6SM SCT200
     FM250900 16007KT P6SM BKN200
     FM251600 21012G18KT P6SM SCT250
     FM252000 24020G28KT P6SM SCT250
     FM260300 26014G22KT P6SM SCT250=

USA.gov is the U.S. government's official web portal to all federal, state and local government web resources and services.